Time;durP1;ratioP1;P1;durP2;ratioP2;P2;SDS_P1;SDS_P2;PMS_P1;PMS_P2;Temp;Humidity;BMP_temperature;BMP_pressure;BME280_temperature;BME280_humidity;BME280_pressure;Samples;Min_cycle;Max_cycle;Signal;HPM_P1;HPM_P2
2021/12/02 00:02:23;;;;;;;248.57;238.33;;;4.60;99.90;;;;;;4391102;32;20202;-65
2021/12/02 00:04:51;;;;;;;245.23;235.07;;;4.70;99.90;;;;;;4392519;32;20140;-66
2021/12/02 00:07:18;;;;;;;229.57;220.30;;;4.80;99.90;;;;;;4392865;32;20148;-69
2021/12/02 00:09:47;;;;;;;238.23;228.60;;;4.80;99.90;;;;;;4392351;32;20186;-63
2021/12/02 00:12:15;;;;;;;242.20;232.53;;;4.70;99.90;;;;;;4392749;32;20146;-63
2021/12/02 00:14:43;;;;;;;227.57;218.37;;;4.60;99.90;;;;;;4391047;32;20206;-64
2021/12/02 00:17:17;;;;;;;237.43;227.70;;;4.60;99.90;;;;;;4390488;32;20231;-63
2021/12/02 00:22:32;;;;;;;237.60;228.17;;;4.20;99.90;;;;;;4392623;32;20208;-63
2021/12/02 00:25:03;;;;;;;231.77;222.40;;;4.10;99.90;;;;;;4392623;32;20145;-63
2021/12/02 00:27:31;;;;;;;233.77;224.27;;;4.00;99.90;;;;;;4392593;32;20212;-65
2021/12/02 00:30:00;;;;;;;249.33;239.03;;;3.90;99.90;;;;;;4392407;32;20147;-65
2021/12/02 00:32:30;;;;;;;246.97;236.93;;;3.80;99.90;;;;;;4391313;32;20568;-63
2021/12/02 00:34:59;;;;;;;245.50;235.77;;;3.80;99.90;;;;;;4392572;32;20167;-63
2021/12/02 00:37:27;;;;;;;230.23;220.77;;;3.80;99.90;;;;;;4390124;32;20152;-63
2021/12/02 00:39:55;;;;;;;241.27;231.27;;;3.80;99.90;;;;;;4391915;32;20561;-63
2021/12/02 00:42:23;;;;;;;239.53;229.83;;;3.80;99.90;;;;;;4378716;32;20175;-63
2021/12/02 00:44:51;;;;;;;241.03;230.83;;;3.70;99.90;;;;;;4383391;32;20501;-64
2021/12/02 00:47:19;;;;;;;227.30;217.83;;;3.70;99.90;;;;;;4392252;32;20162;-63
2021/12/02 00:49:48;;;;;;;229.70;220.47;;;3.60;99.90;;;;;;4390570;32;20164;-63
2021/12/02 00:52:16;;;;;;;227.80;218.60;;;3.60;99.90;;;;;;4392050;32;20171;-64
2021/12/02 00:54:46;;;;;;;235.67;226.10;;;3.60;99.90;;;;;;4391345;32;20167;-64
2021/12/02 00:57:13;;;;;;;233.47;224.03;;;3.60;99.90;;;;;;4391070;32;20148;-64
2021/12/02 00:59:44;;;;;;;239.33;229.77;;;3.60;99.90;;;;;;4390317;32;20179;-63
2021/12/02 01:02:11;;;;;;;217.17;208.43;;;3.70;99.90;;;;;;4392196;32;20165;-63
2021/12/02 01:04:39;;;;;;;208.97;200.30;;;3.80;99.90;;;;;;4391974;32;20197;-63
2021/12/02 01:07:06;;;;;;;213.23;204.43;;;4.00;99.90;;;;;;4390397;32;20187;-64
2021/12/02 01:09:35;;;;;;;196.50;188.70;;;4.00;99.90;;;;;;4392192;32;20168;-63
2021/12/02 01:12:03;;;;;;;191.70;183.73;;;4.10;99.90;;;;;;4391684;32;20550;-64
2021/12/02 01:14:31;;;;;;;201.87;193.50;;;4.00;99.90;;;;;;4378268;32;20489;-63
2021/12/02 01:16:58;;;;;;;166.70;159.47;;;4.00;99.90;;;;;;4379254;32;20174;-63
2021/12/02 01:19:25;;;;;;;173.70;166.23;;;4.00;99.90;;;;;;4390501;32;20194;-64
2021/12/02 01:21:54;;;;;;;204.43;196.03;;;3.80;99.90;;;;;;4391929;32;20596;-63
2021/12/02 01:24:24;;;;;;;217.33;208.50;;;3.70;99.90;;;;;;4391636;32;20195;-64
2021/12/02 01:26:55;;;;;;;211.73;203.20;;;3.50;99.90;;;;;;4391495;32;20231;-64
2021/12/02 01:29:23;;;;;;;210.60;201.83;;;3.50;99.90;;;;;;4392068;32;20166;-63
2021/12/02 01:31:54;;;;;;;229.80;220.80;;;3.60;99.90;;;;;;4392083;32;20560;-63
2021/12/02 01:34:27;;;;;;;200.97;193.00;;;3.60;99.90;;;;;;4391977;32;20174;-65
2021/12/02 01:36:55;;;;;;;188.20;180.30;;;3.60;99.90;;;;;;4391215;32;20144;-64
2021/12/02 01:39:24;;;;;;;201.20;193.20;;;3.60;99.90;;;;;;4390485;32;20585;-62
2021/12/02 01:41:55;;;;;;;185.00;177.27;;;3.80;99.90;;;;;;4391678;32;20661;-62
2021/12/02 01:44:24;;;;;;;214.10;205.23;;;3.80;99.90;;;;;;4391990;32;20180;-62
2021/12/02 01:46:53;;;;;;;223.47;214.43;;;3.90;99.90;;;;;;4390183;32;20183;-65
2021/12/02 01:49:22;;;;;;;221.63;212.43;;;3.90;99.90;;;;;;4390349;32;20147;-65
2021/12/02 01:51:54;;;;;;;221.40;212.17;;;4.00;99.90;;;;;;4386402;32;20496;-63
2021/12/02 01:54:23;;;;;;;214.33;205.30;;;4.00;99.90;;;;;;4387377;32;20550;-65
2021/12/02 01:56:54;;;;;;;242.23;232.43;;;3.90;99.90;;;;;;4379687;32;20148;-65
2021/12/02 01:59:26;;;;;;;209.43;200.23;;;4.00;99.90;;;;;;4379528;32;20144;-63
2021/12/02 02:01:58;;;;;;;214.20;205.33;;;4.00;99.90;;;;;;4379544;32;20167;-63
2021/12/02 02:04:26;;;;;;;199.60;191.13;;;4.00;99.90;;;;;;4379562;32;20151;-65
2021/12/02 02:06:56;;;;;;;204.73;196.10;;;3.90;99.90;;;;;;4379496;32;20141;-63
2021/12/02 02:09:25;;;;;;;214.53;205.70;;;3.80;99.90;;;;;;4391987;32;20215;-63
2021/12/02 02:11:56;;;;;;;222.87;213.63;;;3.70;99.90;;;;;;4393753;32;20157;-63
2021/12/02 02:14:26;;;;;;;202.10;193.73;;;3.80;99.90;;;;;;4394487;32;20154;-63
2021/12/02 02:16:57;;;;;;;195.10;186.97;;;3.90;99.90;;;;;;4394482;32;20148;-64
2021/12/02 02:19:29;;;;;;;218.37;209.27;;;4.00;99.90;;;;;;4394366;32;20145;-63
2021/12/02 02:21:58;;;;;;;215.53;206.50;;;4.00;99.90;;;;;;4392309;32;20476;-64
2021/12/02 02:24:25;;;;;;;217.37;208.23;;;4.10;99.90;;;;;;4392730;32;20488;-64
2021/12/02 02:26:53;;;;;;;207.60;199.07;;;4.00;99.90;;;;;;4393331;32;20144;-65
2021/12/02 02:29:20;;;;;;;204.60;196.07;;;4.00;99.90;;;;;;4393597;32;20153;-64
2021/12/02 02:31:49;;;;;;;209.97;201.00;;;4.10;99.90;;;;;;4394048;32;20163;-64
2021/12/02 02:34:16;;;;;;;206.87;198.03;;;4.00;99.90;;;;;;4394306;32;20636;-64
2021/12/02 02:36:51;;;;;;;234.00;224.03;;;4.00;99.90;;;;;;4392646;32;20148;-65
2021/12/02 02:39:20;;;;;;;235.13;225.53;;;3.90;99.90;;;;;;4394343;32;20183;-64
2021/12/02 02:41:54;;;;;;;248.97;238.90;;;3.80;99.90;;;;;;4394200;32;20556;-64
2021/12/02 02:44:22;;;;;;;237.43;227.60;;;3.70;99.90;;;;;;4391998;32;20544;-64
2021/12/02 02:46:49;;;;;;;246.30;236.07;;;3.60;99.90;;;;;;4393882;32;20163;-64
2021/12/02 02:49:16;;;;;;;250.13;240.17;;;3.50;99.90;;;;;;4391716;32;20157;-64
2021/12/02 02:51:44;;;;;;;263.40;252.77;;;3.40;99.90;;;;;;4393782;32;20164;-64
2021/12/02 02:54:15;;;;;;;266.73;255.60;;;3.40;99.90;;;;;;4393108;32;20463;-64
2021/12/02 02:56:49;;;;;;;239.73;229.97;;;3.40;99.90;;;;;;4393637;32;20550;-64
2021/12/02 02:59:26;;;;;;;259.47;249.03;;;3.40;99.90;;;;;;4392293;32;20151;-64
2021/12/02 03:02:03;;;;;;;256.80;246.47;;;3.40;99.90;;;;;;4393766;32;20163;-64
2021/12/02 03:04:37;;;;;;;225.33;215.50;;;3.40;99.90;;;;;;4392115;32;20198;-64
2021/12/02 03:07:10;;;;;;;238.77;229.13;;;3.40;99.90;;;;;;4392076;32;20159;-64
2021/12/02 03:09:49;;;;;;;219.13;210.40;;;3.60;99.90;;;;;;4393436;32;20210;-64
2021/12/02 03:12:24;;;;;;;216.30;207.63;;;3.90;99.90;;;;;;4392068;32;20197;-64
2021/12/02 03:17:36;;;;;;;216.50;207.77;;;3.90;99.90;;;;;;4391761;32;20211;-64
2021/12/02 03:20:04;;;;;;;201.67;193.00;;;3.70;99.90;;;;;;4393289;32;20170;-64
2021/12/02 03:22:33;;;;;;;209.17;200.53;;;3.80;99.90;;;;;;4393413;32;20307;-64
2021/12/02 03:25:00;;;;;;;221.87;212.87;;;3.90;99.90;;;;;;4391395;32;20186;-64
2021/12/02 03:27:28;;;;;;;225.47;216.00;;;3.90;99.90;;;;;;4392763;32;20179;-64
2021/12/02 03:29:55;;;;;;;212.97;203.93;;;3.90;99.90;;;;;;4393512;32;20167;-64
2021/12/02 03:32:22;;;;;;;206.90;198.23;;;3.90;99.90;;;;;;4393039;32;20191;-64
2021/12/02 03:34:49;;;;;;;214.50;205.73;;;3.90;99.90;;;;;;4391747;32;20188;-63
2021/12/02 03:37:16;;;;;;;222.90;213.53;;;3.90;99.90;;;;;;4391364;32;20162;-64
2021/12/02 03:39:43;;;;;;;240.70;230.20;;;3.90;99.90;;;;;;4391568;32;20205;-64
2021/12/02 03:42:11;;;;;;;239.87;230.27;;;3.90;99.90;;;;;;4393201;32;20602;-64
2021/12/02 03:44:39;;;;;;;236.20;226.33;;;3.90;99.90;;;;;;4391576;32;20607;-64
2021/12/02 03:47:06;;;;;;;230.63;221.03;;;3.80;99.90;;;;;;4391457;32;20152;-64
2021/12/02 03:49:33;;;;;;;228.03;218.70;;;3.80;99.90;;;;;;4391567;32;20190;-64
2021/12/02 03:52:00;;;;;;;238.00;228.07;;;3.70;99.90;;;;;;4385486;32;20179;-65
2021/12/02 03:54:27;;;;;;;235.37;225.30;;;3.50;99.90;;;;;;4388458;32;20178;-65
2021/12/02 03:56:54;;;;;;;260.70;250.13;;;3.40;99.90;;;;;;4387463;32;20585;-63
2021/12/02 03:59:21;;;;;;;246.73;236.90;;;3.30;99.90;;;;;;4393050;32;20152;-64
2021/12/02 04:01:50;;;;;;;222.83;213.47;;;3.30;99.90;;;;;;4391302;32;20566;-64
2021/12/02 04:04:16;;;;;;;243.10;233.07;;;3.50;99.90;;;;;;4392930;32;20184;-64
2021/12/02 04:06:43;;;;;;;222.47;213.53;;;3.60;99.90;;;;;;4392945;32;20472;-64
2021/12/02 04:09:14;;;;;;;222.20;212.87;;;3.70;99.90;;;;;;4390126;32;20154;-63
2021/12/02 04:11:44;;;;;;;233.77;224.03;;;3.80;99.90;;;;;;4391235;32;20551;-64
2021/12/02 04:14:17;;;;;;;236.23;227.03;;;3.80;99.90;;;;;;4390715;32;20149;-64
2021/12/02 04:16:52;;;;;;;241.67;231.03;;;3.80;99.90;;;;;;4391517;32;20140;-64
2021/12/02 04:19:22;;;;;;;222.43;213.30;;;3.70;99.90;;;;;;4391810;32;20150;-64
2021/12/02 04:21:49;;;;;;;210.97;202.47;;;3.50;99.90;;;;;;4391088;32;20178;-64
2021/12/02 04:24:16;;;;;;;231.97;222.60;;;3.40;99.90;;;;;;4392239;32;20484;-64
2021/12/02 04:26:43;;;;;;;255.53;245.27;;;3.40;99.90;;;;;;4390957;32;20204;-63
2021/12/02 04:29:10;;;;;;;234.90;225.60;;;3.40;99.90;;;;;;4390895;32;20182;-64
2021/12/02 04:31:38;;;;;;;265.13;254.50;;;3.30;99.90;;;;;;4391273;32;20183;-64
2021/12/02 04:34:05;;;;;;;269.43;258.83;;;3.10;99.90;;;;;;4390900;32;20196;-64
2021/12/02 04:36:33;;;;;;;268.20;257.40;;;3.00;99.90;;;;;;4392489;32;20145;-64
2021/12/02 04:39:00;;;;;;;265.57;254.60;;;2.90;99.90;;;;;;4392626;32;20144;-64
2021/12/02 04:41:27;;;;;;;242.07;232.30;;;2.90;99.90;;;;;;4392489;32;20149;-64
2021/12/02 04:43:54;;;;;;;247.43;237.50;;;3.00;99.90;;;;;;4392414;32;20152;-64
2021/12/02 04:46:20;;;;;;;239.43;229.90;;;3.20;99.90;;;;;;4390391;32;20212;-65
2021/12/02 04:48:47;;;;;;;232.60;223.30;;;3.40;99.90;;;;;;4392330;32;20140;-64
2021/12/02 04:51:14;;;;;;;244.87;234.90;;;3.30;99.90;;;;;;4390412;32;20581;-64
2021/12/02 04:53:42;;;;;;;243.70;233.93;;;3.20;99.90;;;;;;4390614;32;20527;-64
2021/12/02 04:56:09;;;;;;;269.20;257.67;;;3.20;99.90;;;;;;4390426;32;20146;-64
2021/12/02 04:58:36;;;;;;;252.30;242.37;;;3.10;99.90;;;;;;4391448;32;20157;-64
2021/12/02 05:01:03;;;;;;;241.07;231.47;;;3.00;99.90;;;;;;4390299;32;20188;-65
2021/12/02 05:03:30;;;;;;;253.37;243.17;;;3.00;99.90;;;;;;4390487;32;20164;-65
2021/12/02 05:05:57;;;;;;;255.07;244.80;;;3.00;99.90;;;;;;4390579;32;20571;-65
2021/12/02 05:08:23;;;;;;;250.43;240.23;;;2.80;99.90;;;;;;4392314;32;20146;-65
2021/12/02 05:10:52;;;;;;;273.97;262.87;;;2.90;99.90;;;;;;4390588;32;20146;-65
2021/12/02 05:13:18;;;;;;;254.00;243.87;;;2.90;99.90;;;;;;4390136;32;20234;-64
2021/12/02 05:15:45;;;;;;;247.63;237.77;;;2.90;99.90;;;;;;4391891;32;20603;-64
2021/12/02 05:18:12;;;;;;;240.70;231.13;;;2.90;99.90;;;;;;4392147;32;20177;-64
2021/12/02 05:20:39;;;;;;;233.60;224.20;;;2.90;99.90;;;;;;4392197;32;20145;-64
2021/12/02 05:23:06;;;;;;;247.33;237.47;;;2.80;99.90;;;;;;4391998;32;20500;-65
2021/12/02 05:25:33;;;;;;;225.70;216.80;;;2.80;99.90;;;;;;4392194;32;20198;-64
2021/12/02 05:28:01;;;;;;;245.70;235.90;;;2.80;99.90;;;;;;4393044;32;20173;-64
2021/12/02 05:30:28;;;;;;;254.13;244.17;;;3.00;99.90;;;;;;4394547;32;20165;-64
2021/12/02 05:32:54;;;;;;;252.80;242.87;;;3.20;99.90;;;;;;4393386;32;20169;-64
2021/12/02 05:35:21;;;;;;;248.67;238.40;;;3.30;99.90;;;;;;4395256;32;20171;-64
2021/12/02 05:37:48;;;;;;;248.23;238.20;;;3.40;99.90;;;;;;4393435;32;20160;-64
2021/12/02 05:40:15;;;;;;;255.83;245.23;;;3.30;99.90;;;;;;4393819;32;20213;-64
2021/12/02 05:42:42;;;;;;;264.60;253.43;;;3.30;99.90;;;;;;4392782;32;20158;-63
2021/12/02 05:45:10;;;;;;;237.70;227.97;;;3.20;99.90;;;;;;4382730;32;20152;-65
2021/12/02 05:47:37;;;;;;;218.97;210.03;;;3.20;99.90;;;;;;4379690;32;20230;-63
2021/12/02 05:50:05;;;;;;;210.27;201.47;;;3.00;99.90;;;;;;4383889;32;20154;-63
2021/12/02 05:52:32;;;;;;;248.17;237.83;;;3.10;99.90;;;;;;4388928;32;20178;-65
2021/12/02 05:54:59;;;;;;;244.87;234.83;;;3.10;99.90;;;;;;4392583;32;20568;-65
2021/12/02 05:57:26;;;;;;;249.93;240.03;;;3.10;99.90;;;;;;4394782;32;20166;-65
2021/12/02 05:59:53;;;;;;;233.77;224.03;;;3.20;99.90;;;;;;4394659;32;20600;-63
2021/12/02 06:02:21;;;;;;;236.73;226.80;;;3.20;99.90;;;;;;4382577;32;20176;-66
2021/12/02 06:04:51;;;;;;;234.93;225.53;;;3.10;99.90;;;;;;4390208;32;20214;-65
2021/12/02 06:07:18;;;;;;;225.87;216.70;;;3.00;99.90;;;;;;4385365;32;20224;-65
2021/12/02 06:09:45;;;;;;;249.70;239.77;;;2.90;99.90;;;;;;4383279;32;20188;-65
2021/12/02 06:12:12;;;;;;;235.17;225.80;;;2.60;99.90;;;;;;4380943;32;20188;-65
2021/12/02 06:14:39;;;;;;;248.07;237.90;;;2.60;99.90;;;;;;4387627;32;20214;-65
2021/12/02 06:17:06;;;;;;;231.57;222.33;;;2.40;99.90;;;;;;4383863;32;20216;-65
2021/12/02 06:19:34;;;;;;;229.50;220.00;;;2.40;99.90;;;;;;4386316;32;20190;-65
2021/12/02 06:22:01;;;;;;;237.40;227.73;;;2.50;99.90;;;;;;4388233;32;20196;-65
2021/12/02 06:24:31;;;;;;;230.83;221.53;;;2.50;99.90;;;;;;4385186;32;20181;-66
2021/12/02 06:26:58;;;;;;;218.87;209.97;;;2.70;99.90;;;;;;4387593;32;20609;-63
2021/12/02 06:29:25;;;;;;;251.50;241.70;;;2.80;99.90;;;;;;4388257;32;20214;-63
2021/12/02 06:31:52;;;;;;;250.87;240.83;;;2.80;99.90;;;;;;4388600;32;20156;-63
2021/12/02 06:34:19;;;;;;;257.17;246.77;;;2.70;99.90;;;;;;4387713;32;20177;-64
2021/12/02 06:36:47;;;;;;;266.50;255.80;;;2.70;99.90;;;;;;4384722;32;20187;-65
2021/12/02 06:39:14;;;;;;;250.47;240.23;;;2.60;99.90;;;;;;4381861;32;20240;-62
2021/12/02 06:41:41;;;;;;;253.80;243.77;;;2.60;99.90;;;;;;4388902;32;20585;-64
2021/12/02 06:44:07;;;;;;;263.40;252.63;;;2.80;99.90;;;;;;4386734;32;20180;-63
2021/12/02 06:46:35;;;;;;;229.73;220.53;;;2.90;99.90;;;;;;4382566;32;20261;-64
2021/12/02 06:49:13;;;;;;;220.17;211.40;;;3.00;99.90;;;;;;4381388;32;20231;-63
2021/12/02 06:51:40;;;;;;;203.27;195.13;;;3.00;99.90;;;;;;4389110;32;20146;-64
2021/12/02 06:54:09;;;;;;;218.47;209.53;;;3.00;99.90;;;;;;4383156;32;20168;-64
2021/12/02 06:56:36;;;;;;;214.70;206.03;;;3.00;99.90;;;;;;4385207;32;20220;-63
2021/12/02 06:59:03;;;;;;;211.83;203.47;;;3.00;99.90;;;;;;4386860;32;20225;-63
2021/12/02 07:01:33;;;;;;;259.33;248.83;;;3.10;99.90;;;;;;4384512;32;20176;-63
2021/12/02 07:04:00;;;;;;;247.87;237.97;;;3.00;99.90;;;;;;4388231;32;20482;-63
2021/12/02 07:06:27;;;;;;;255.43;244.60;;;3.00;99.90;;;;;;4385013;32;20185;-63
2021/12/02 07:08:54;;;;;;;233.00;223.80;;;3.00;99.90;;;;;;4383887;32;20237;-63
2021/12/02 07:11:22;;;;;;;243.17;232.97;;;3.10;99.90;;;;;;4385865;32;20161;-63
2021/12/02 07:13:51;;;;;;;229.67;220.53;;;3.20;99.90;;;;;;4384198;32;20156;-62
2021/12/02 07:16:20;;;;;;;230.87;221.70;;;3.20;99.90;;;;;;4384375;32;20158;-62
2021/12/02 07:18:53;;;;;;;223.70;214.57;;;3.20;99.90;;;;;;4381966;32;20154;-63
2021/12/02 07:21:20;;;;;;;227.07;217.67;;;3.20;99.90;;;;;;4384894;32;20160;-63
2021/12/02 07:23:47;;;;;;;234.33;224.73;;;3.20;99.90;;;;;;4385355;32;20185;-63
2021/12/02 07:26:14;;;;;;;241.37;230.67;;;3.20;99.90;;;;;;4385764;32;20580;-61
2021/12/02 07:28:44;;;;;;;235.63;226.20;;;3.10;99.90;;;;;;4385386;32;20172;-64
2021/12/02 07:31:11;;;;;;;237.43;227.63;;;2.90;99.90;;;;;;4384720;32;20216;-64
2021/12/02 07:33:42;;;;;;;241.53;232.07;;;2.60;99.90;;;;;;4384905;32;20153;-64
2021/12/02 07:36:09;;;;;;;256.70;246.23;;;2.50;99.90;;;;;;4388550;32;20576;-63
2021/12/02 07:38:38;;;;;;;251.33;240.80;;;2.40;99.90;;;;;;4378809;32;20212;-64
2021/12/02 07:41:05;;;;;;;240.23;230.40;;;2.40;99.90;;;;;;4381444;32;20192;-65
2021/12/02 07:43:34;;;;;;;254.53;243.93;;;2.50;99.90;;;;;;4390505;32;20202;-63
2021/12/02 07:46:03;;;;;;;256.57;246.27;;;2.50;99.90;;;;;;4386091;32;20160;-63
2021/12/02 07:48:31;;;;;;;281.37;270.17;;;2.50;99.90;;;;;;4387252;32;20691;-64
2021/12/02 07:51:01;;;;;;;258.33;247.90;;;2.50;99.90;;;;;;4376278;32;20169;-63
2021/12/02 07:53:29;;;;;;;237.07;227.47;;;2.50;99.90;;;;;;4376701;32;20205;-63
2021/12/02 07:55:58;;;;;;;231.83;222.37;;;2.60;99.90;;;;;;4376512;32;20213;-63
2021/12/02 07:58:25;;;;;;;240.20;230.50;;;2.60;99.90;;;;;;4376328;32;20167;-64
2021/12/02 08:00:52;;;;;;;233.07;223.60;;;2.60;99.90;;;;;;4376247;32;20148;-64
2021/12/02 08:03:21;;;;;;;218.20;209.37;;;2.70;99.90;;;;;;4377608;32;20554;-63
2021/12/02 08:05:48;;;;;;;241.53;231.80;;;2.70;99.90;;;;;;4376066;32;20190;-63
2021/12/02 08:08:14;;;;;;;234.57;224.83;;;2.80;99.90;;;;;;4377898;32;20240;-64
2021/12/02 08:10:41;;;;;;;222.87;214.10;;;2.70;99.90;;;;;;4388920;32;20152;-65
2021/12/02 08:13:08;;;;;;;212.70;203.80;;;2.60;99.90;;;;;;4390313;32;20175;-63
2021/12/02 08:15:37;;;;;;;232.00;222.70;;;2.70;99.90;;;;;;4390929;32;20649;-65
2021/12/02 08:18:04;;;;;;;226.33;217.07;;;2.70;99.90;;;;;;4390020;32;20617;-63
2021/12/02 08:20:33;;;;;;;226.73;217.47;;;2.70;99.90;;;;;;4376336;32;20157;-63
2021/12/02 08:23:00;;;;;;;228.40;219.10;;;2.70;99.90;;;;;;4389624;32;20160;-63
2021/12/02 08:25:29;;;;;;;226.37;216.93;;;2.80;99.90;;;;;;4392338;32;20148;-63
2021/12/02 08:27:59;;;;;;;252.10;242.03;;;2.80;99.90;;;;;;4391779;32;20254;-63
2021/12/02 08:30:27;;;;;;;241.80;232.17;;;2.80;99.90;;;;;;4392602;32;20223;-63
2021/12/02 08:32:55;;;;;;;237.20;227.53;;;2.70;99.90;;;;;;4392643;32;20144;-63
2021/12/02 08:35:23;;;;;;;253.33;243.10;;;2.70;99.90;;;;;;4390912;32;20143;-63
2021/12/02 08:37:55;;;;;;;261.30;250.80;;;2.70;99.90;;;;;;4392527;32;20565;-63
2021/12/02 08:40:30;;;;;;;247.67;238.00;;;2.90;99.90;;;;;;4390769;32;20149;-63
2021/12/02 08:42:57;;;;;;;216.30;207.60;;;3.00;99.90;;;;;;4392333;32;20157;-63
2021/12/02 08:45:24;;;;;;;220.30;211.07;;;3.20;99.90;;;;;;4390544;32;20165;-62
2021/12/02 08:47:51;;;;;;;246.00;235.93;;;3.30;99.90;;;;;;4392446;32;20176;-62
2021/12/02 08:50:19;;;;;;;227.40;218.03;;;3.20;99.90;;;;;;4392268;32;20144;-63
2021/12/02 08:52:48;;;;;;;252.43;242.20;;;3.10;99.90;;;;;;4391333;32;20264;-63
2021/12/02 08:55:18;;;;;;;243.50;233.80;;;3.00;99.90;;;;;;4390681;32;20484;-64
2021/12/02 08:57:45;;;;;;;237.83;228.07;;;2.90;99.90;;;;;;4392361;32;20199;-64
2021/12/02 09:00:15;;;;;;;248.10;237.90;;;2.90;99.90;;;;;;4392156;32;20591;-63
2021/12/02 09:02:44;;;;;;;218.93;209.90;;;2.80;99.90;;;;;;4390604;32;20149;-63
2021/12/02 09:05:11;;;;;;;223.93;214.70;;;2.80;99.90;;;;;;4390508;32;20151;-63
2021/12/02 09:07:38;;;;;;;218.97;210.20;;;2.90;99.90;;;;;;4390588;32;20169;-63
2021/12/02 09:10:08;;;;;;;233.10;223.43;;;2.90;99.90;;;;;;4392194;32;20168;-63
2021/12/02 09:12:57;;;;;;;255.70;245.17;;;3.00;99.90;;;;;;4392051;32;20165;-63
2021/12/02 09:15:27;;;;;;;225.63;216.07;;;3.20;99.90;;;;;;4376707;32;20143;-62
2021/12/02 09:17:54;;;;;;;208.87;200.17;;;3.40;99.90;;;;;;4375875;32;20550;-63
2021/12/02 09:20:21;;;;;;;234.50;224.50;;;3.50;99.90;;;;;;4375588;32;20154;-63
2021/12/02 09:22:48;;;;;;;257.87;247.10;;;3.60;99.90;;;;;;4375343;32;20160;-62
2021/12/02 09:25:17;;;;;;;212.80;203.77;;;3.80;99.90;;;;;;4377257;32;20149;-62
2021/12/02 09:27:48;;;;;;;238.73;228.97;;;4.10;99.90;;;;;;4377101;32;20150;-62
2021/12/02 09:30:17;;;;;;;223.47;214.30;;;4.60;99.90;;;;;;4377141;32;20155;-62
2021/12/02 09:32:45;;;;;;;238.17;228.30;;;4.80;99.90;;;;;;4375383;32;20163;-62
2021/12/02 09:35:16;;;;;;;216.67;207.50;;;5.00;99.90;;;;;;4375236;32;20573;-62
2021/12/02 09:37:43;;;;;;;244.47;234.10;;;4.90;99.90;;;;;;4375369;32;20522;-62
2021/12/02 09:40:12;;;;;;;246.83;236.93;;;4.50;99.90;;;;;;4376736;32;20152;-62
2021/12/02 09:42:48;;;;;;;243.97;234.03;;;4.50;99.90;;;;;;4375267;32;20171;-62
2021/12/02 09:45:18;;;;;;;256.53;246.23;;;4.60;99.90;;;;;;4375304;32;20156;-62
2021/12/02 09:47:48;;;;;;;258.50;247.87;;;4.60;99.90;;;;;;4376915;32;20142;-62
2021/12/02 09:50:21;;;;;;;273.33;261.87;;;4.60;99.90;;;;;;4376188;32;20586;-62
2021/12/02 09:52:49;;;;;;;283.63;272.00;;;4.60;99.90;;;;;;4375776;32;20573;-62
2021/12/02 09:55:23;;;;;;;296.30;283.53;;;4.50;99.90;;;;;;4375336;32;20163;-62
2021/12/02 09:57:55;;;;;;;335.07;321.63;;;4.40;99.90;;;;;;4376901;32;20142;-63
2021/12/02 10:00:35;;;;;;;299.23;287.10;;;4.30;99.90;;;;;;4375267;32;20156;-62
2021/12/02 10:03:05;;;;;;;331.70;318.10;;;4.20;99.90;;;;;;4377038;32;20143;-62
2021/12/02 10:05:38;;;;;;;341.37;327.67;;;3.90;99.90;;;;;;4376614;32;20137;-62
2021/12/02 10:08:07;;;;;;;339.43;325.67;;;3.70;99.90;;;;;;4376888;32;20429;-62
2021/12/02 10:10:38;;;;;;;332.53;318.93;;;3.50;99.90;;;;;;4375132;32;20160;-63
2021/12/02 10:13:20;;;;;;;332.17;318.40;;;3.40;99.90;;;;;;4377671;32;20148;-62
2021/12/02 10:16:04;;;;;;;311.87;299.53;;;3.20;99.90;;;;;;4377774;32;20176;-63
2021/12/02 10:18:42;;;;;;;320.17;307.20;;;3.20;99.90;;;;;;4379475;32;20141;-62
2021/12/02 10:21:21;;;;;;;285.10;273.87;;;3.20;99.90;;;;;;4377639;32;20511;-62
2021/12/02 10:23:48;;;;;;;262.33;251.60;;;3.40;99.90;;;;;;4379212;32;20445;-63
2021/12/02 10:26:18;;;;;;;243.47;233.80;;;3.80;99.90;;;;;;4378915;32;20163;-63
2021/12/02 10:28:47;;;;;;;235.13;225.77;;;4.60;99.90;;;;;;4379328;32;20144;-63
2021/12/02 10:31:21;;;;;;;213.10;204.37;;;5.00;99.90;;;;;;4378514;32;20179;-62
2021/12/02 10:33:53;;;;;;;255.93;245.90;;;5.10;99.90;;;;;;4377471;32;20149;-63
2021/12/02 10:36:30;;;;;;;316.90;304.20;;;4.80;99.90;;;;;;4376654;32;20484;-62
2021/12/02 10:39:00;;;;;;;361.83;347.27;;;4.50;99.90;;;;;;4382580;32;20236;-63
2021/12/02 10:41:29;;;;;;;332.00;318.70;;;4.20;99.90;;;;;;4389458;32;20164;-62
2021/12/02 10:44:12;;;;;;;356.30;341.70;;;3.80;99.90;;;;;;4381393;32;20210;-64
2021/12/02 10:46:42;;;;;;;309.00;296.73;;;3.50;99.90;;;;;;4390029;32;20160;-63
2021/12/02 10:49:16;;;;;;;330.30;317.00;;;3.40;99.90;;;;;;4382683;32;20172;-64
2021/12/02 10:51:46;;;;;;;311.10;298.70;;;3.40;99.90;;;;;;4381223;32;20219;-64
2021/12/02 10:54:15;;;;;;;280.43;269.33;;;3.40;99.90;;;;;;4381873;32;20161;-64
2021/12/02 10:56:52;;;;;;;290.70;279.17;;;3.50;99.90;;;;;;4385055;32;20165;-63
2021/12/02 10:59:37;;;;;;;280.67;269.57;;;3.50;99.90;;;;;;4381930;32;20569;-63
2021/12/02 11:02:07;;;;;;;253.43;243.47;;;3.50;99.90;;;;;;4389714;32;20153;-63
2021/12/02 11:04:38;;;;;;;258.17;247.87;;;3.60;99.90;;;;;;4385739;32;20157;-63
2021/12/02 11:07:10;;;;;;;272.23;261.13;;;3.70;99.90;;;;;;4392395;32;20164;-63
2021/12/02 11:09:37;;;;;;;256.73;246.67;;;3.80;99.90;;;;;;4390769;32;20151;-63
2021/12/02 11:12:10;;;;;;;249.17;239.27;;;3.80;99.90;;;;;;4391015;32;20181;-63
2021/12/02 11:14:42;;;;;;;230.63;221.53;;;3.90;99.90;;;;;;4392609;32;20578;-63
2021/12/02 11:17:14;;;;;;;255.90;245.73;;;3.90;99.90;;;;;;4392624;32;20186;-63
2021/12/02 11:19:45;;;;;;;250.73;240.77;;;4.00;99.90;;;;;;4391703;32;20151;-63
2021/12/02 11:22:26;;;;;;;234.17;225.00;;;4.00;99.90;;;;;;4390695;32;20174;-63
2021/12/02 11:24:53;;;;;;;268.67;258.07;;;4.00;99.90;;;;;;4388140;32;20235;-63
2021/12/02 11:27:27;;;;;;;270.43;259.67;;;4.20;99.90;;;;;;4384701;32;20198;-63
2021/12/02 11:29:58;;;;;;;275.80;265.03;;;4.00;99.90;;;;;;4385901;32;20214;-62
2021/12/02 11:32:35;;;;;;;260.37;249.97;;;3.90;99.90;;;;;;4382896;32;20169;-63
2021/12/02 11:35:06;;;;;;;278.50;267.33;;;3.90;99.90;;;;;;4387118;32;20176;-63
2021/12/02 11:37:37;;;;;;;293.13;281.27;;;4.00;99.90;;;;;;4384108;32;20163;-63
2021/12/02 11:40:08;;;;;;;283.67;272.03;;;3.90;99.90;;;;;;4384759;32;20589;-63
2021/12/02 11:42:36;;;;;;;288.07;276.53;;;3.70;99.90;;;;;;4383158;32;20205;-63
2021/12/02 11:45:06;;;;;;;274.57;263.47;;;3.70;99.90;;;;;;4382628;32;20211;-63
2021/12/02 11:47:33;;;;;;;323.63;310.40;;;3.60;99.90;;;;;;4383306;32;20215;-62
2021/12/02 11:50:02;;;;;;;284.27;272.90;;;3.40;99.90;;;;;;4383617;32;20216;-63
2021/12/02 11:52:29;;;;;;;307.40;294.77;;;3.40;99.90;;;;;;4384887;32;20187;-62
2021/12/02 11:54:59;;;;;;;304.30;291.67;;;3.20;99.90;;;;;;4385125;32;20204;-63
2021/12/02 11:57:30;;;;;;;274.53;263.33;;;3.10;99.90;;;;;;4382233;32;20179;-62
2021/12/02 11:59:57;;;;;;;278.43;267.17;;;3.00;99.90;;;;;;4382897;32;20160;-63
2021/12/02 12:02:25;;;;;;;292.93;281.00;;;3.00;99.90;;;;;;4385528;32;20257;-62
2021/12/02 12:04:57;;;;;;;280.23;269.00;;;3.00;99.90;;;;;;4382247;32;20184;-62
2021/12/02 12:07:38;;;;;;;257.93;247.73;;;3.00;99.90;;;;;;4387329;32;20572;-62
2021/12/02 12:10:25;;;;;;;260.03;249.07;;;3.00;99.90;;;;;;4387809;32;20153;-63
2021/12/02 12:12:53;;;;;;;264.93;254.37;;;3.10;99.90;;;;;;4383794;32;20202;-63
2021/12/02 12:15:39;;;;;;;269.63;258.70;;;3.20;99.90;;;;;;4383433;32;20193;-62
2021/12/02 12:18:09;;;;;;;258.97;248.17;;;3.20;99.90;;;;;;4383885;32;20157;-63
2021/12/02 12:21:01;;;;;;;267.17;256.67;;;3.30;99.90;;;;;;4386418;32;20179;-63
2021/12/02 12:23:30;;;;;;;254.03;243.77;;;3.30;99.90;;;;;;4382828;32;20164;-63
2021/12/02 12:26:23;;;;;;;260.90;250.27;;;3.30;99.90;;;;;;4381902;32;20175;-64
2021/12/02 12:29:27;;;;;;;269.47;258.77;;;3.40;99.90;;;;;;4384722;32;20171;-62
2021/12/02 12:32:31;;;;;;;254.40;244.00;;;3.40;99.90;;;;;;4383442;32;20214;-62
2021/12/02 12:35:07;;;;;;;260.13;249.53;;;3.40;99.90;;;;;;4384361;32;20168;-64
2021/12/02 12:38:02;;;;;;;234.77;225.30;;;3.50;99.90;;;;;;4383522;32;20153;-63